createdAt,value
2018-08-03T00:04:22.101Z,29.05
2018-08-03T00:09:25.909Z,29.10
2018-08-03T00:14:29.754Z,29.02
2018-08-03T00:19:33.584Z,28.95
2018-08-03T00:24:37.529Z,28.86
2018-08-03T00:29:41.441Z,28.93
2018-08-03T00:34:45.405Z,28.85
2018-08-03T00:39:49.338Z,28.79
2018-08-03T00:44:53.373Z,28.76
2018-08-03T00:49:57.264Z,28.76
2018-08-03T00:55:04.188Z,28.71
2018-08-03T01:00:08.427Z,28.74
2018-08-03T01:05:12.260Z,28.64
2018-08-03T01:10:16.249Z,28.66
2018-08-03T01:15:20.015Z,28.61
2018-08-03T01:20:23.857Z,28.61
2018-08-03T01:25:28.140Z,28.46
2018-08-03T01:30:32.154Z,28.51
2018-08-03T01:35:35.998Z,28.51
2018-08-03T01:40:39.737Z,28.49
2018-08-03T01:45:43.562Z,28.41
2018-08-03T01:50:47.516Z,28.41
2018-08-03T01:55:51.349Z,28.43
2018-08-03T02:00:55.179Z,28.38
2018-08-03T02:05:59.028Z,28.36
2018-08-03T02:11:02.970Z,28.33
2018-08-03T02:16:06.881Z,28.29
2018-08-03T02:21:10.830Z,28.27
2018-08-03T02:26:14.719Z,28.26
2018-08-03T02:31:18.659Z,28.29
2018-08-03T02:36:22.557Z,28.25
2018-08-03T02:41:26.336Z,28.20
2018-08-03T02:46:30.154Z,28.20
2018-08-03T02:51:33.968Z,28.19
2018-08-03T02:56:37.845Z,28.17
2018-08-03T03:01:41.697Z,28.16
2018-08-03T03:06:45.657Z,28.19
2018-08-03T03:11:49.550Z,28.13
2018-08-03T03:16:53.403Z,28.18
2018-08-03T03:21:57.189Z,28.15
2018-08-03T03:27:01.053Z,28.09
2018-08-03T03:32:04.888Z,28.07
2018-08-03T03:37:08.799Z,27.86
2018-08-03T03:42:12.615Z,27.88
2018-08-03T03:47:16.401Z,27.45
2018-08-03T03:52:20.297Z,26.83
2018-08-03T03:57:24.147Z,26.72
2018-08-03T04:02:28.852Z,26.49
2018-08-03T04:07:32.693Z,26.12
2018-08-03T04:12:36.455Z,25.98
2018-08-03T04:17:40.218Z,25.55
2018-08-03T04:22:44.121Z,25.37
2018-08-03T04:27:47.938Z,25.29
2018-08-03T04:32:51.805Z,25.29
2018-08-03T04:37:55.629Z,25.39
2018-08-03T04:42:59.567Z,25.39
2018-08-03T04:48:03.398Z,25.60
2018-08-03T04:53:07.491Z,25.66
2018-08-03T04:58:12.430Z,25.63
2018-08-03T05:03:17.631Z,25.57
2018-08-03T05:08:22.010Z,25.48
2018-08-03T05:13:25.843Z,25.51
2018-08-03T05:18:30.760Z,25.66
2018-08-03T05:23:34.680Z,25.80
2018-08-03T05:28:38.608Z,25.78
2018-08-03T05:33:42.470Z,25.76
2018-08-03T05:38:46.543Z,25.81
2018-08-03T05:43:50.369Z,25.95
2018-08-03T05:48:54.319Z,25.95
2018-08-03T05:54:02.690Z,26.00
2018-08-03T05:59:07.087Z,26.00
2018-08-03T06:04:10.986Z,26.02
2018-08-03T06:09:14.823Z,26.05
2018-08-03T06:14:18.715Z,26.13
2018-08-03T06:19:22.578Z,26.22
2018-08-03T06:24:27.184Z,26.10
2018-08-03T06:29:31.805Z,26.20
2018-08-03T06:34:36.374Z,26.16
2018-08-03T06:39:40.230Z,26.34
2018-08-03T06:44:45.837Z,26.45
2018-08-03T06:49:49.811Z,26.49
2018-08-03T06:54:53.763Z,26.56
2018-08-03T06:59:57.736Z,26.71
2018-08-03T07:05:07.008Z,26.78
2018-08-03T07:10:11.335Z,26.86
2018-08-03T07:15:21.714Z,26.87
2018-08-03T07:20:26.446Z,26.90
2018-08-03T07:25:30.383Z,26.96
2018-08-03T07:30:34.953Z,27.01
2018-08-03T07:35:38.971Z,27.04
2018-08-03T07:40:47.963Z,27.11
2018-08-03T07:46:05.342Z,27.14
2018-08-03T07:51:27.072Z,27.18
2018-08-03T07:56:31.872Z,27.23
2018-08-03T08:01:35.720Z,27.30
2018-08-03T08:06:39.616Z,27.30
2018-08-03T08:11:43.488Z,27.34
2018-08-03T08:16:48.325Z,27.40
2018-08-03T08:21:52.243Z,27.40
2018-08-03T08:26:56.686Z,27.45
2018-08-03T08:32:00.606Z,27.47
2018-08-03T08:37:04.504Z,27.47
2018-08-03T08:42:08.359Z,27.51
2018-08-03T08:47:15.231Z,27.51
2018-08-03T08:52:20.208Z,27.55
2018-08-03T08:57:25.571Z,27.56
2018-08-03T09:02:30.000Z,27.57
2018-08-03T09:07:33.915Z,27.63
2018-08-03T09:12:37.903Z,27.63
2018-08-03T09:17:41.677Z,27.64
2018-08-03T09:22:45.522Z,27.67
2018-08-03T09:27:49.960Z,27.66
2018-08-03T09:32:53.771Z,27.70
2018-08-03T09:37:57.802Z,27.71
2018-08-03T09:43:01.581Z,27.73
2018-08-03T09:48:05.467Z,27.75
2018-08-03T09:53:09.262Z,27.78
2018-08-03T09:58:13.083Z,27.76
2018-08-03T10:03:16.926Z,27.78
2018-08-03T10:08:21.430Z,27.80
2018-08-03T10:13:25.262Z,27.81
2018-08-03T10:18:30.271Z,27.90
2018-08-03T10:23:34.147Z,27.87
2018-08-03T10:28:38.067Z,27.88
2018-08-03T10:33:41.940Z,27.91
2018-08-03T10:38:45.753Z,27.96
2018-08-03T10:43:49.558Z,28.02
2018-08-03T10:48:53.481Z,28.03
2018-08-03T10:53:57.382Z,28.04
2018-08-03T10:59:01.205Z,28.06
2018-08-03T11:04:05.095Z,28.09
2018-08-03T11:09:10.201Z,28.11
2018-08-03T11:14:14.040Z,28.12
2018-08-03T11:19:19.427Z,28.11
2018-08-03T11:24:23.571Z,28.07
2018-08-03T11:29:27.667Z,28.09
2018-08-03T11:34:31.552Z,28.19
2018-08-03T11:39:35.985Z,28.10
2018-08-03T11:44:40.685Z,28.09
2018-08-03T11:49:47.308Z,28.10
2018-08-03T11:54:51.320Z,28.16
2018-08-03T12:00:07.665Z,28.16
2018-08-03T12:05:12.916Z,28.17
2018-08-03T12:10:16.971Z,28.16
2018-08-03T12:15:21.576Z,28.26
2018-08-03T12:20:26.240Z,28.30
2018-08-03T12:25:30.463Z,28.32
2018-08-03T12:30:35.871Z,28.37
2018-08-03T12:35:41.251Z,28.39
2018-08-03T12:40:46.556Z,28.46
2018-08-03T12:45:52.309Z,28.49
2018-08-03T12:50:58.892Z,28.56
2018-08-03T12:56:02.950Z,28.57
2018-08-03T13:01:07.880Z,28.57
2018-08-03T13:06:11.960Z,28.66
2018-08-03T13:11:16.314Z,28.72
2018-08-03T13:16:20.271Z,28.74
2018-08-03T13:21:35.546Z,28.73
2018-08-03T13:26:39.446Z,28.73
2018-08-03T13:31:43.540Z,28.79
2018-08-03T13:36:47.500Z,28.79
2018-08-03T13:41:51.543Z,28.80
2018-08-03T13:46:55.622Z,28.81
2018-08-03T13:51:59.626Z,28.86
2018-08-03T13:57:03.426Z,28.89
2018-08-03T14:02:18.359Z,28.93
2018-08-03T14:07:22.198Z,28.83
2018-08-03T14:12:26.055Z,28.83
2018-08-03T14:17:29.939Z,28.75
2018-08-03T14:22:34.617Z,28.74
2018-08-03T14:27:38.452Z,28.76
2018-08-03T14:32:42.300Z,28.65
2018-08-03T14:37:46.642Z,28.61
2018-08-03T14:42:51.595Z,28.65
2018-08-03T14:47:55.614Z,28.73
2018-08-03T14:53:00.599Z,28.76
2018-08-03T14:58:04.673Z,28.78
2018-08-03T15:03:09.897Z,28.79
2018-08-03T15:08:13.796Z,28.79
2018-08-03T15:13:17.690Z,28.75
2018-08-03T15:18:21.716Z,28.81
2018-08-03T15:23:25.645Z,28.83
2018-08-03T15:28:29.822Z,28.85
2018-08-03T15:33:35.322Z,28.87
2018-08-03T15:38:39.225Z,28.91
2018-08-03T15:43:43.109Z,29.02
2018-08-03T15:48:47.060Z,29.02
2018-08-03T15:53:51.125Z,29.08
2018-08-03T15:58:56.226Z,29.16
2018-08-03T16:04:00.319Z,29.18
2018-08-03T16:09:06.349Z,29.18
2018-08-03T16:14:10.925Z,29.18
2018-08-03T16:19:18.549Z,29.18
2018-08-03T16:24:26.002Z,29.18
2018-08-03T16:29:30.326Z,29.22
2018-08-03T16:34:34.257Z,29.18
2018-08-03T16:39:38.146Z,29.28
2018-08-03T16:44:42.864Z,29.33
2018-08-03T16:49:46.775Z,29.37
2018-08-03T16:54:50.903Z,29.43
2018-08-03T16:59:54.846Z,29.44
2018-08-03T17:04:58.826Z,29.51
2018-08-03T17:26:25.625Z,29.51
2018-08-03T17:31:29.486Z,29.51
2018-08-03T17:36:34.623Z,29.46
2018-08-03T17:41:39.674Z,29.47
2018-08-03T17:46:43.651Z,29.49
2018-08-03T17:51:47.520Z,29.55
2018-08-03T17:56:51.485Z,29.57
2018-08-03T18:01:55.439Z,29.50
2018-08-03T18:06:59.410Z,29.53
2018-08-03T18:12:03.703Z,29.53
2018-08-03T18:17:08.018Z,29.45
2018-08-03T18:22:11.900Z,29.47
2018-08-03T18:27:15.788Z,29.52
2018-08-03T18:32:19.610Z,29.50
2018-08-03T18:37:23.441Z,29.49
2018-08-03T18:42:27.658Z,29.45
2018-08-03T18:47:31.436Z,29.44
2018-08-03T18:52:35.282Z,29.49
2018-08-03T18:57:39.161Z,29.54
2018-08-03T19:02:44.295Z,29.64
2018-08-03T19:07:48.223Z,29.65
2018-08-03T19:12:52.159Z,29.60
2018-08-03T19:17:56.732Z,29.60
2018-08-03T19:23:00.595Z,29.62
2018-08-03T19:28:04.562Z,29.64
2018-08-03T19:33:08.938Z,29.60
2018-08-03T19:38:13.285Z,29.60
2018-08-03T19:43:17.846Z,29.56
2018-08-03T19:48:21.937Z,29.46
2018-08-03T19:53:25.844Z,29.48
2018-08-03T19:58:30.621Z,29.57
2018-08-03T20:03:34.532Z,29.47
2018-08-03T20:08:38.611Z,29.49
2018-08-03T20:13:42.601Z,29.55
2018-08-03T20:18:46.490Z,29.45
2018-08-03T20:23:50.338Z,29.47
2018-08-03T20:28:54.137Z,29.51
2018-08-03T20:33:57.938Z,29.36
2018-08-03T20:39:01.812Z,29.36
2018-08-03T20:44:05.583Z,29.38
2018-08-03T20:49:09.426Z,29.44
2018-08-03T20:54:13.318Z,29.39
2018-08-03T20:59:17.128Z,29.47
2018-08-03T21:04:21.581Z,29.48
2018-08-03T21:09:26.241Z,29.43
2018-08-03T21:14:30.063Z,29.40
2018-08-03T21:19:33.928Z,29.31
2018-08-03T21:24:38.028Z,29.38
2018-08-03T21:29:41.859Z,29.41
2018-08-03T21:34:45.894Z,29.34
2018-08-03T21:39:49.698Z,29.37
2018-08-03T21:44:54.319Z,29.46
2018-08-03T21:49:58.375Z,29.45
2018-08-03T21:55:05.350Z,29.39
2018-08-03T22:00:13.150Z,29.36
2018-08-03T22:05:17.068Z,29.44
2018-08-03T22:10:21.139Z,29.43
2018-08-03T22:15:25.001Z,29.39
2018-08-03T22:20:28.866Z,29.46
2018-08-03T22:25:33.726Z,29.37
2018-08-03T22:30:37.630Z,29.42
2018-08-03T22:35:41.528Z,29.36
2018-08-03T22:40:45.425Z,29.41
2018-08-03T22:45:49.216Z,29.40
2018-08-03T22:50:53.005Z,29.38
2018-08-03T22:55:56.878Z,29.35
2018-08-03T23:01:00.866Z,29.33
2018-08-03T23:06:04.718Z,29.36
2018-08-03T23:11:08.796Z,29.31
2018-08-03T23:16:13.520Z,29.29
2018-08-03T23:21:17.387Z,29.24
2018-08-03T23:26:21.248Z,29.24
2018-08-03T23:31:25.009Z,29.24
2018-08-03T23:36:28.825Z,29.25
2018-08-03T23:41:32.718Z,29.25
2018-08-03T23:46:36.664Z,29.22
2018-08-03T23:51:40.447Z,29.20
2018-08-03T23:56:44.310Z,29.20
